sensor_id;sensor_type;location;lat;lon;timestamp;pressure;altitude;pressure_sealevel;temperature;humidity
53340;BME280;46212;50.258;19.062;2023-01-30T00:01:16;98613.50;;;-1.98;72.85
53340;BME280;46212;50.258;19.062;2023-01-30T00:03:41;98601.19;;;-1.92;73.21
53340;BME280;46212;50.258;19.062;2023-01-30T00:06:07;98585.16;;;-2.11;73.35
53340;BME280;46212;50.258;19.062;2023-01-30T00:08:32;98566.94;;;-2.18;72.95
53340;BME280;46212;50.258;19.062;2023-01-30T00:11:03;98571.16;;;-2.20;73.73
53340;BME280;46212;50.258;19.062;2023-01-30T00:13:29;98566.88;;;-2.21;73.41
53340;BME280;46212;50.258;19.062;2023-01-30T00:15:54;98561.19;;;-2.12;73.41
53340;BME280;46212;50.258;19.062;2023-01-30T00:18:20;98540.25;;;-2.19;73.62
53340;BME280;46212;50.258;19.062;2023-01-30T00:20:45;98554.16;;;-2.21;73.67
53340;BME280;46212;50.258;19.062;2023-01-30T00:23:11;98528.72;;;-2.09;72.67
53340;BME280;46212;50.258;19.062;2023-01-30T00:25:36;98535.72;;;-2.48;72.94
53340;BME280;46212;50.258;19.062;2023-01-30T00:28:01;98538.22;;;-2.29;73.59
53340;BME280;46212;50.258;19.062;2023-01-30T00:30:28;98531.13;;;-2.04;72.94
53340;BME280;46212;50.258;19.062;2023-01-30T00:32:55;98525.53;;;-2.22;73.50
53340;BME280;46212;50.258;19.062;2023-01-30T00:35:20;98512.41;;;-2.23;73.34
53340;BME280;46212;50.258;19.062;2023-01-30T00:37:47;98523.31;;;-2.09;72.78
53340;BME280;46212;50.258;19.062;2023-01-30T00:40:12;98515.91;;;-2.19;73.48
53340;BME280;46212;50.258;19.062;2023-01-30T00:42:37;98518.31;;;-2.51;74.37
53340;BME280;46212;50.258;19.062;2023-01-30T00:45:21;98522.03;;;-2.62;74.69
53340;BME280;46212;50.258;19.062;2023-01-30T00:48:06;98516.22;;;-2.68;74.83
53340;BME280;46212;50.258;19.062;2023-01-30T00:50:31;98501.66;;;-2.93;75.68
53340;BME280;46212;50.258;19.062;2023-01-30T00:53:13;98518.47;;;-2.74;75.84
53340;BME280;46212;50.258;19.062;2023-01-30T00:55:39;98498.03;;;-2.71;75.55
53340;BME280;46212;50.258;19.062;2023-01-30T00:58:05;98516.28;;;-2.61;75.56
53340;BME280;46212;50.258;19.062;2023-01-30T01:00:31;98497.75;;;-2.59;75.26
53340;BME280;46212;50.258;19.062;2023-01-30T01:02:56;98498.03;;;-2.71;76.00
53340;BME280;46212;50.258;19.062;2023-01-30T01:05:22;98499.00;;;-2.90;76.83
53340;BME280;46212;50.258;19.062;2023-01-30T01:07:47;98472.66;;;-2.96;76.19
53340;BME280;46212;50.258;19.062;2023-01-30T01:10:12;98482.66;;;-3.00;77.29
53340;BME280;46212;50.258;19.062;2023-01-30T01:12:41;98470.56;;;-3.10;77.33
53340;BME280;46212;50.258;19.062;2023-01-30T01:15:08;98455.22;;;-3.02;77.27
53340;BME280;46212;50.258;19.062;2023-01-30T01:17:33;98451.09;;;-3.26;77.83
53340;BME280;46212;50.258;19.062;2023-01-30T01:19:59;98454.25;;;-3.20;78.47
53340;BME280;46212;50.258;19.062;2023-01-30T01:22:24;98455.53;;;-3.11;77.71
53340;BME280;46212;50.258;19.062;2023-01-30T01:24:50;98448.97;;;-3.10;78.36
53340;BME280;46212;50.258;19.062;2023-01-30T01:27:15;98438.66;;;-3.34;79.24
53340;BME280;46212;50.258;19.062;2023-01-30T01:29:40;98428.91;;;-3.42;79.65
53340;BME280;46212;50.258;19.062;2023-01-30T01:32:06;98420.06;;;-3.39;79.34
53340;BME280;46212;50.258;19.062;2023-01-30T01:34:31;98421.09;;;-3.51;79.65
53340;BME280;46212;50.258;19.062;2023-01-30T01:36:56;98431.38;;;-3.90;81.32
53340;BME280;46212;50.258;19.062;2023-01-30T01:39:22;98432.53;;;-3.91;82.08
53340;BME280;46212;50.258;19.062;2023-01-30T01:41:47;98437.44;;;-4.00;82.54
53340;BME280;46212;50.258;19.062;2023-01-30T01:44:13;98421.13;;;-3.81;82.40
53340;BME280;46212;50.258;19.062;2023-01-30T01:46:49;98425.00;;;-3.78;82.16
53340;BME280;46212;50.258;19.062;2023-01-30T01:49:34;98401.53;;;-3.74;82.37
53340;BME280;46212;50.258;19.062;2023-01-30T01:52:06;98398.50;;;-3.99;82.79
53340;BME280;46212;50.258;19.062;2023-01-30T01:54:49;98393.09;;;-3.99;83.47
53340;BME280;46212;50.258;19.062;2023-01-30T01:57:31;98361.53;;;-3.98;83.85
53340;BME280;46212;50.258;19.062;2023-01-30T02:00:11;98363.03;;;-4.01;83.93
53340;BME280;46212;50.258;19.062;2023-01-30T02:02:39;98349.50;;;-3.74;83.74
53340;BME280;46212;50.258;19.062;2023-01-30T02:05:06;98351.00;;;-3.77;83.26
53340;BME280;46212;50.258;19.062;2023-01-30T02:07:46;98348.38;;;-3.70;83.93
53340;BME280;46212;50.258;19.062;2023-01-30T02:10:22;98327.59;;;-3.69;83.57
53340;BME280;46212;50.258;19.062;2023-01-30T02:12:50;98322.19;;;-3.69;84.02
53340;BME280;46212;50.258;19.062;2023-01-30T02:15:17;98321.94;;;-3.57;83.52
53340;BME280;46212;50.258;19.062;2023-01-30T02:17:44;98309.09;;;-3.67;83.47
53340;BME280;46212;50.258;19.062;2023-01-30T02:20:37;98334.53;;;-3.68;83.68
53340;BME280;46212;50.258;19.062;2023-01-30T02:26:41;98305.50;;;-3.79;84.60
53340;BME280;46212;50.258;19.062;2023-01-30T02:37:02;98299.38;;;-3.76;84.73
53340;BME280;46212;50.258;19.062;2023-01-30T02:42:28;98284.28;;;-3.80;84.64
53340;BME280;46212;50.258;19.062;2023-01-30T02:45:28;98259.97;;;-3.47;83.71
53340;BME280;46212;50.258;19.062;2023-01-30T02:48:02;98257.78;;;-3.74;84.19
53340;BME280;46212;50.258;19.062;2023-01-30T02:50:50;98256.13;;;-3.46;83.63
53340;BME280;46212;50.258;19.062;2023-01-30T02:53:18;98256.50;;;-3.47;83.23
53340;BME280;46212;50.258;19.062;2023-01-30T02:55:43;98255.88;;;-3.30;83.38
53340;BME280;46212;50.258;19.062;2023-01-30T02:58:09;98250.13;;;-3.25;82.33
53340;BME280;46212;50.258;19.062;2023-01-30T03:00:59;98253.75;;;-3.07;82.02
53340;BME280;46212;50.258;19.062;2023-01-30T03:09:06;98265.16;;;-3.28;82.35
53340;BME280;46212;50.258;19.062;2023-01-30T03:11:46;98258.09;;;-3.39;82.41
53340;BME280;46212;50.258;19.062;2023-01-30T03:17:13;98219.66;;;-3.26;81.93
53340;BME280;46212;50.258;19.062;2023-01-30T03:19:40;98235.38;;;-3.35;82.20
53340;BME280;46212;50.258;19.062;2023-01-30T03:22:06;98240.47;;;-3.26;82.53
53340;BME280;46212;50.258;19.062;2023-01-30T03:24:31;98258.41;;;-3.48;82.85
53340;BME280;46212;50.258;19.062;2023-01-30T03:27:02;98243.00;;;-3.47;83.38
53340;BME280;46212;50.258;19.062;2023-01-30T03:29:30;98233.03;;;-3.40;82.87
53340;BME280;46212;50.258;19.062;2023-01-30T03:31:55;98232.56;;;-3.49;82.46
53340;BME280;46212;50.258;19.062;2023-01-30T03:34:20;98235.25;;;-3.49;83.01
53340;BME280;46212;50.258;19.062;2023-01-30T03:36:46;98239.94;;;-3.42;83.07
53340;BME280;46212;50.258;19.062;2023-01-30T03:39:12;98216.06;;;-3.40;82.84
53340;BME280;46212;50.258;19.062;2023-01-30T03:41:38;98221.78;;;-3.45;82.88
53340;BME280;46212;50.258;19.062;2023-01-30T03:44:03;98211.88;;;-3.34;82.96
53340;BME280;46212;50.258;19.062;2023-01-30T03:46:29;98217.38;;;-3.24;82.26
53340;BME280;46212;50.258;19.062;2023-01-30T03:48:54;98203.88;;;-3.24;81.72
53340;BME280;46212;50.258;19.062;2023-01-30T03:51:19;98201.88;;;-3.30;81.74
53340;BME280;46212;50.258;19.062;2023-01-30T03:53:45;98208.22;;;-3.08;81.65
53340;BME280;46212;50.258;19.062;2023-01-30T03:56:10;98189.19;;;-3.23;81.06
53340;BME280;46212;50.258;19.062;2023-01-30T03:58:36;98169.16;;;-3.22;81.35
53340;BME280;46212;50.258;19.062;2023-01-30T04:01:01;98202.41;;;-3.14;81.17
53340;BME280;46212;50.258;19.062;2023-01-30T04:03:26;98211.16;;;-3.28;81.83
53340;BME280;46212;50.258;19.062;2023-01-30T04:05:52;98183.50;;;-3.10;81.51
53340;BME280;46212;50.258;19.062;2023-01-30T04:08:17;98175.09;;;-3.02;80.46
53340;BME280;46212;50.258;19.062;2023-01-30T04:10:43;98153.88;;;-2.96;80.19
53340;BME280;46212;50.258;19.062;2023-01-30T04:13:08;98163.09;;;-3.04;80.40
53340;BME280;46212;50.258;19.062;2023-01-30T04:15:34;98151.78;;;-3.24;80.50
53340;BME280;46212;50.258;19.062;2023-01-30T04:17:59;98151.44;;;-3.15;80.96
53340;BME280;46212;50.258;19.062;2023-01-30T04:20:24;98144.50;;;-3.13;80.46
53340;BME280;46212;50.258;19.062;2023-01-30T04:22:50;98139.13;;;-3.13;80.63
53340;BME280;46212;50.258;19.062;2023-01-30T04:25:15;98116.38;;;-3.08;79.99
53340;BME280;46212;50.258;19.062;2023-01-30T04:27:41;98130.81;;;-2.80;79.66
53340;BME280;46212;50.258;19.062;2023-01-30T04:30:07;98127.97;;;-3.08;79.41
53340;BME280;46212;50.258;19.062;2023-01-30T04:32:32;98133.72;;;-3.09;80.07
53340;BME280;46212;50.258;19.062;2023-01-30T04:34:58;98147.97;;;-3.16;79.84
53340;BME280;46212;50.258;19.062;2023-01-30T04:37:23;98134.22;;;-2.93;79.74
53340;BME280;46212;50.258;19.062;2023-01-30T04:39:48;98130.66;;;-3.08;79.88
53340;BME280;46212;50.258;19.062;2023-01-30T04:42:14;98105.22;;;-3.00;79.69
53340;BME280;46212;50.258;19.062;2023-01-30T04:44:39;98128.47;;;-2.85;79.22
53340;BME280;46212;50.258;19.062;2023-01-30T04:47:05;98112.97;;;-3.02;79.28
53340;BME280;46212;50.258;19.062;2023-01-30T04:49:30;98115.69;;;-2.91;79.19
53340;BME280;46212;50.258;19.062;2023-01-30T04:51:55;98125.75;;;-2.85;79.06
53340;BME280;46212;50.258;19.062;2023-01-30T04:54:21;98130.75;;;-2.90;79.17
53340;BME280;46212;50.258;19.062;2023-01-30T04:56:46;98123.69;;;-3.12;79.76
53340;BME280;46212;50.258;19.062;2023-01-30T04:59:12;98115.66;;;-2.95;79.13
53340;BME280;46212;50.258;19.062;2023-01-30T05:01:37;98097.53;;;-2.98;79.34
53340;BME280;46212;50.258;19.062;2023-01-30T05:04:04;98115.69;;;-2.98;79.64
53340;BME280;46212;50.258;19.062;2023-01-30T05:06:31;98089.78;;;-3.03;79.25
53340;BME280;46212;50.258;19.062;2023-01-30T05:08:57;98076.72;;;-2.90;78.88
53340;BME280;46212;50.258;19.062;2023-01-30T05:11:24;98098.41;;;-2.76;78.73
53340;BME280;46212;50.258;19.062;2023-01-30T05:13:50;98082.97;;;-2.72;78.21
53340;BME280;46212;50.258;19.062;2023-01-30T05:16:17;98082.16;;;-2.83;78.42
53340;BME280;46212;50.258;19.062;2023-01-30T05:18:43;98081.41;;;-2.80;78.57
53340;BME280;46212;50.258;19.062;2023-01-30T05:21:10;98079.00;;;-2.99;78.70
53340;BME280;46212;50.258;19.062;2023-01-30T05:23:37;98078.69;;;-2.84;78.71
53340;BME280;46212;50.258;19.062;2023-01-30T05:26:03;98071.38;;;-2.80;78.08
53340;BME280;46212;50.258;19.062;2023-01-30T05:28:29;98057.47;;;-2.75;78.48
53340;BME280;46212;50.258;19.062;2023-01-30T05:31:03;98054.47;;;-2.52;77.52
53340;BME280;46212;50.258;19.062;2023-01-30T05:33:29;98074.16;;;-2.51;77.42
53340;BME280;46212;50.258;19.062;2023-01-30T05:35:55;98064.41;;;-2.81;77.77
53340;BME280;46212;50.258;19.062;2023-01-30T05:38:21;98057.06;;;-2.84;77.83
53340;BME280;46212;50.258;19.062;2023-01-30T05:40:47;98049.41;;;-2.71;77.23
53340;BME280;46212;50.258;19.062;2023-01-30T05:43:12;98069.47;;;-2.69;77.65
53340;BME280;46212;50.258;19.062;2023-01-30T05:45:38;98071.06;;;-2.57;76.95
53340;BME280;46212;50.258;19.062;2023-01-30T05:48:03;98012.34;;;-2.60;76.82
53340;BME280;46212;50.258;19.062;2023-01-30T05:50:30;98020.41;;;-2.78;77.29
53340;BME280;46212;50.258;19.062;2023-01-30T05:52:55;98013.53;;;-2.40;76.44
53340;BME280;46212;50.258;19.062;2023-01-30T05:55:21;98004.66;;;-2.54;76.02
53340;BME280;46212;50.258;19.062;2023-01-30T05:57:47;98000.75;;;-2.67;76.54
53340;BME280;46212;50.258;19.062;2023-01-30T06:00:13;97996.13;;;-2.67;76.71
53340;BME280;46212;50.258;19.062;2023-01-30T06:02:38;98005.78;;;-2.70;76.87
53340;BME280;46212;50.258;19.062;2023-01-30T06:05:04;97995.78;;;-2.51;76.27
53340;BME280;46212;50.258;19.062;2023-01-30T06:07:30;97988.41;;;-2.61;75.82
53340;BME280;46212;50.258;19.062;2023-01-30T06:09:56;97976.47;;;-2.60;75.98
53340;BME280;46212;50.258;19.062;2023-01-30T06:12:21;97994.19;;;-2.59;75.82
53340;BME280;46212;50.258;19.062;2023-01-30T06:14:46;97985.72;;;-2.44;75.50
53340;BME280;46212;50.258;19.062;2023-01-30T06:17:12;97989.19;;;-2.61;75.75
53340;BME280;46212;50.258;19.062;2023-01-30T06:19:37;97977.22;;;-2.53;75.75
53340;BME280;46212;50.258;19.062;2023-01-30T06:22:03;97973.00;;;-2.40;75.03
53340;BME280;46212;50.258;19.062;2023-01-30T06:24:28;97980.72;;;-2.45;76.00
53340;BME280;46212;50.258;19.062;2023-01-30T06:26:53;98000.41;;;-2.55;76.25
53340;BME280;46212;50.258;19.062;2023-01-30T06:29:19;97983.81;;;-2.43;75.77
53340;BME280;46212;50.258;19.062;2023-01-30T06:31:45;97978.41;;;-2.40;75.66
53340;BME280;46212;50.258;19.062;2023-01-30T06:34:10;97968.34;;;-2.25;75.08
53340;BME280;46212;50.258;19.062;2023-01-30T06:36:36;97966.03;;;-2.51;75.06
53340;BME280;46212;50.258;19.062;2023-01-30T06:39:01;97962.94;;;-2.43;75.47
53340;BME280;46212;50.258;19.062;2023-01-30T06:41:27;97951.75;;;-2.45;75.05
53340;BME280;46212;50.258;19.062;2023-01-30T06:43:52;97970.28;;;-2.47;75.20
53340;BME280;46212;50.258;19.062;2023-01-30T06:46:18;97954.06;;;-2.36;74.48
53340;BME280;46212;50.258;19.062;2023-01-30T06:48:43;97962.16;;;-2.43;75.04
53340;BME280;46212;50.258;19.062;2023-01-30T06:51:09;97957.94;;;-2.48;75.24
53340;BME280;46212;50.258;19.062;2023-01-30T06:53:34;97953.28;;;-2.40;74.64
53340;BME280;46212;50.258;19.062;2023-01-30T06:56:00;97953.69;;;-2.21;74.55
53340;BME280;46212;50.258;19.062;2023-01-30T06:58:26;97950.56;;;-2.05;73.91
53340;BME280;46212;50.258;19.062;2023-01-30T07:00:51;97962.56;;;-2.13;74.48
53340;BME280;46212;50.258;19.062;2023-01-30T07:03:17;97956.38;;;-2.17;74.49
53340;BME280;46212;50.258;19.062;2023-01-30T07:05:45;97938.63;;;-2.32;74.60
53340;BME280;46212;50.258;19.062;2023-01-30T07:08:11;97940.94;;;-2.27;74.19
53340;BME280;46212;50.258;19.062;2023-01-30T07:10:37;97951.75;;;-2.48;74.71
53340;BME280;46212;50.258;19.062;2023-01-30T07:13:03;97956.41;;;-2.35;74.84
53340;BME280;46212;50.258;19.062;2023-01-30T07:15:29;97954.47;;;-2.20;74.36
53340;BME280;46212;50.258;19.062;2023-01-30T07:17:55;97927.38;;;-2.06;73.58
53340;BME280;46212;50.258;19.062;2023-01-30T07:20:20;97906.16;;;-2.15;73.55
53340;BME280;46212;50.258;19.062;2023-01-30T07:22:53;97918.88;;;-1.94;73.18
53340;BME280;46212;50.258;19.062;2023-01-30T07:25:20;97895.31;;;-2.11;73.49
53340;BME280;46212;50.258;19.062;2023-01-30T07:27:50;97914.66;;;-2.16;73.82
53340;BME280;46212;50.258;19.062;2023-01-30T07:30:16;97886.84;;;-2.20;73.80
53340;BME280;46212;50.258;19.062;2023-01-30T07:32:42;97896.84;;;-2.03;73.11
53340;BME280;46212;50.258;19.062;2023-01-30T07:35:07;97888.34;;;-1.98;72.99
53340;BME280;46212;50.258;19.062;2023-01-30T07:37:33;97882.56;;;-2.00;73.32
53340;BME280;46212;50.258;19.062;2023-01-30T07:39:58;97897.97;;;-1.90;73.33
53340;BME280;46212;50.258;19.062;2023-01-30T07:42:24;97903.81;;;-1.95;72.92
53340;BME280;46212;50.258;19.062;2023-01-30T07:44:49;97900.38;;;-2.17;74.03
53340;BME280;46212;50.258;19.062;2023-01-30T07:47:14;97905.34;;;-1.90;73.63
53340;BME280;46212;50.258;19.062;2023-01-30T07:49:40;97886.41;;;-2.01;73.44
53340;BME280;46212;50.258;19.062;2023-01-30T07:52:05;97880.22;;;-2.01;73.25
53340;BME280;46212;50.258;19.062;2023-01-30T07:54:30;97870.19;;;-2.11;73.52
53340;BME280;46212;50.258;19.062;2023-01-30T07:56:56;97883.31;;;-1.96;73.49
53340;BME280;46212;50.258;19.062;2023-01-30T07:59:21;97879.44;;;-1.95;73.39
53340;BME280;46212;50.258;19.062;2023-01-30T08:01:47;97874.38;;;-1.79;73.56
53340;BME280;46212;50.258;19.062;2023-01-30T08:04:12;97851.59;;;-1.81;72.69
53340;BME280;46212;50.258;19.062;2023-01-30T08:06:37;97890.19;;;-1.67;72.48
53340;BME280;46212;50.258;19.062;2023-01-30T08:09:04;97891.03;;;-1.87;73.38
53340;BME280;46212;50.258;19.062;2023-01-30T08:11:30;97897.53;;;-1.64;73.50
53340;BME280;46212;50.258;19.062;2023-01-30T08:13:55;97894.44;;;-1.66;73.42
53340;BME280;46212;50.258;19.062;2023-01-30T08:16:21;97907.19;;;-1.63;73.11
53340;BME280;46212;50.258;19.062;2023-01-30T08:18:46;97867.75;;;-1.64;72.05
53340;BME280;46212;50.258;19.062;2023-01-30T08:21:12;97836.41;;;-1.61;72.63
53340;BME280;46212;50.258;19.062;2023-01-30T08:23:37;97847.84;;;-1.25;71.85
53340;BME280;46212;50.258;19.062;2023-01-30T08:26:03;97859.50;;;-1.39;72.04
53340;BME280;46212;50.258;19.062;2023-01-30T08:28:29;97827.28;;;-1.19;71.43
53340;BME280;46212;50.258;19.062;2023-01-30T08:30:55;97864.44;;;-1.20;71.56
53340;BME280;46212;50.258;19.062;2023-01-30T08:33:22;97839.63;;;-1.11;71.47
53340;BME280;46212;50.258;19.062;2023-01-30T08:35:47;97850.25;;;-1.41;72.31
53340;BME280;46212;50.258;19.062;2023-01-30T08:38:14;97826.22;;;-1.36;72.22
53340;BME280;46212;50.258;19.062;2023-01-30T08:40:39;97819.88;;;-1.12;71.27
53340;BME280;46212;50.258;19.062;2023-01-30T08:43:06;97835.38;;;-1.12;71.39
53340;BME280;46212;50.258;19.062;2023-01-30T08:45:31;97844.25;;;-1.08;71.23
53340;BME280;46212;50.258;19.062;2023-01-30T08:48:04;97830.75;;;-1.15;71.52
53340;BME280;46212;50.258;19.062;2023-01-30T08:50:31;97820.88;;;-1.43;72.11
53340;BME280;46212;50.258;19.062;2023-01-30T08:53:02;97876.16;;;-1.37;72.24
53340;BME280;46212;50.258;19.062;2023-01-30T08:55:28;97851.03;;;-1.44;72.57
53340;BME280;46212;50.258;19.062;2023-01-30T08:57:55;97845.16;;;-1.32;72.63
53340;BME280;46212;50.258;19.062;2023-01-30T09:00:21;97842.47;;;-1.39;72.91
53340;BME280;46212;50.258;19.062;2023-01-30T09:02:46;97867.13;;;-1.16;72.66
53340;BME280;46212;50.258;19.062;2023-01-30T09:05:11;97843.22;;;-1.28;72.75
53340;BME280;46212;50.258;19.062;2023-01-30T09:07:37;97828.91;;;-1.36;72.67
53340;BME280;46212;50.258;19.062;2023-01-30T09:10:03;97828.38;;;-1.10;72.06
53340;BME280;46212;50.258;19.062;2023-01-30T09:12:28;97819.91;;;-1.15;72.00
53340;BME280;46212;50.258;19.062;2023-01-30T09:14:54;97840.28;;;-0.96;72.05
53340;BME280;46212;50.258;19.062;2023-01-30T09:17:22;97825.38;;;-1.22;73.13
53340;BME280;46212;50.258;19.062;2023-01-30T09:19:47;97812.53;;;-1.11;72.64
53340;BME280;46212;50.258;19.062;2023-01-30T09:22:13;97808.31;;;-1.19;72.30
53340;BME280;46212;50.258;19.062;2023-01-30T09:24:38;97784.22;;;-1.07;72.70
53340;BME280;46212;50.258;19.062;2023-01-30T09:27:04;97813.66;;;-1.05;73.69
53340;BME280;46212;50.258;19.062;2023-01-30T09:29:29;97791.16;;;-0.98;73.40
53340;BME280;46212;50.258;19.062;2023-01-30T09:31:55;97799.16;;;-0.84;72.92
53340;BME280;46212;50.258;19.062;2023-01-30T09:34:25;97807.56;;;-0.72;72.79
53340;BME280;46212;50.258;19.062;2023-01-30T09:36:59;97791.16;;;-0.98;73.49
53340;BME280;46212;50.258;19.062;2023-01-30T09:39:26;97781.75;;;-0.87;74.30
53340;BME280;46212;50.258;19.062;2023-01-30T09:55:16;97747.84;;;-1.05;75.42
53340;BME280;46212;50.258;19.062;2023-01-30T09:57:44;97751.34;;;-1.09;75.00
53340;BME280;46212;50.258;19.062;2023-01-30T10:00:23;97737.31;;;-0.96;76.18
53340;BME280;46212;50.258;19.062;2023-01-30T10:03:01;97746.31;;;-1.10;76.65
53340;BME280;46212;50.258;19.062;2023-01-30T10:14:34;97731.81;;;-1.34;80.09
53340;BME280;46212;50.258;19.062;2023-01-30T10:20:02;97751.78;;;-1.14;80.87
53340;BME280;46212;50.258;19.062;2023-01-30T10:23:02;97720.81;;;-1.13;82.22
53340;BME280;46212;50.258;19.062;2023-01-30T10:28:03;97701.41;;;-1.55;83.62
53340;BME280;46212;50.258;19.062;2023-01-30T10:30:32;97696.97;;;-1.32;84.97
53340;BME280;46212;50.258;19.062;2023-01-30T10:33:02;97712.50;;;-1.39;84.78
53340;BME280;46212;50.258;19.062;2023-01-30T10:35:35;97695.03;;;-1.31;85.20
53340;BME280;46212;50.258;19.062;2023-01-30T10:40:59;97699.56;;;-1.18;85.09
53340;BME280;46212;50.258;19.062;2023-01-30T10:43:56;97673.66;;;-1.19;86.77
53340;BME280;46212;50.258;19.062;2023-01-30T10:54:44;97653.72;;;-1.42;86.73
53340;BME280;46212;50.258;19.062;2023-01-30T10:57:24;97655.97;;;-1.30;86.58
53340;BME280;46212;50.258;19.062;2023-01-30T11:00:00;97656.88;;;-1.07;85.81
53340;BME280;46212;50.258;19.062;2023-01-30T11:02:44;97663.41;;;-1.00;86.58
53340;BME280;46212;50.258;19.062;2023-01-30T11:05:20;97675.94;;;-1.17;86.78
53340;BME280;46212;50.258;19.062;2023-01-30T11:07:47;97639.66;;;-1.27;87.34
53340;BME280;46212;50.258;19.062;2023-01-30T11:10:21;97649.78;;;-1.31;88.67
53340;BME280;46212;50.258;19.062;2023-01-30T11:12:58;97660.28;;;-1.40;89.07
53340;BME280;46212;50.258;19.062;2023-01-30T11:15:38;97633.59;;;-1.41;89.47
53340;BME280;46212;50.258;19.062;2023-01-30T11:18:04;97651.75;;;-1.38;88.42
53340;BME280;46212;50.258;19.062;2023-01-30T11:20:41;97624.19;;;-1.30;88.19
53340;BME280;46212;50.258;19.062;2023-01-30T11:23:22;97598.84;;;-1.46;87.77
53340;BME280;46212;50.258;19.062;2023-01-30T11:25:50;97620.31;;;-1.25;88.04
53340;BME280;46212;50.258;19.062;2023-01-30T11:28:18;97612.63;;;-1.30;87.24
53340;BME280;46212;50.258;19.062;2023-01-30T11:30:51;97624.78;;;-1.08;86.44
53340;BME280;46212;50.258;19.062;2023-01-30T11:33:18;97617.81;;;-1.09;86.48
53340;BME280;46212;50.258;19.062;2023-01-30T11:35:58;97598.50;;;-1.11;86.93
53340;BME280;46212;50.258;19.062;2023-01-30T11:38:26;97603.19;;;-1.15;87.07
53340;BME280;46212;50.258;19.062;2023-01-30T11:43:35;97570.00;;;-0.89;87.69
53340;BME280;46212;50.258;19.062;2023-01-30T11:46:06;97578.88;;;-0.88;87.18
53340;BME280;46212;50.258;19.062;2023-01-30T11:48:33;97570.66;;;-0.81;87.45
53340;BME280;46212;50.258;19.062;2023-01-30T11:51:04;97536.28;;;-0.88;87.49
53340;BME280;46212;50.258;19.062;2023-01-30T11:53:38;97549.97;;;-0.98;88.29
53340;BME280;46212;50.258;19.062;2023-01-30T11:56:08;97557.25;;;-0.92;88.77
53340;BME280;46212;50.258;19.062;2023-01-30T11:58:39;97554.25;;;-1.01;88.91
53340;BME280;46212;50.258;19.062;2023-01-30T12:01:06;97559.47;;;-0.83;88.95
53340;BME280;46212;50.258;19.062;2023-01-30T12:03:32;97548.09;;;-0.71;88.95
53340;BME280;46212;50.258;19.062;2023-01-30T12:06:05;97546.88;;;-0.67;88.99
53340;BME280;46212;50.258;19.062;2023-01-30T12:08:38;97529.94;;;-0.47;88.61
53340;BME280;46212;50.258;19.062;2023-01-30T12:11:23;97512.38;;;-0.66;88.28
53340;BME280;46212;50.258;19.062;2023-01-30T12:13:50;97521.25;;;-0.62;87.97
53340;BME280;46212;50.258;19.062;2023-01-30T12:16:30;97524.16;;;-0.49;87.74
53340;BME280;46212;50.258;19.062;2023-01-30T12:19:22;97503.72;;;-0.54;86.95
53340;BME280;46212;50.258;19.062;2023-01-30T12:21:58;97535.13;;;-0.30;87.30
53340;BME280;46212;50.258;19.062;2023-01-30T12:24:45;97507.53;;;-0.25;87.51
53340;BME280;46212;50.258;19.062;2023-01-30T12:27:23;97519.44;;;-0.42;86.79
53340;BME280;46212;50.258;19.062;2023-01-30T12:29:59;97504.66;;;-0.41;87.53
53340;BME280;46212;50.258;19.062;2023-01-30T12:32:30;97519.81;;;-0.43;88.25
53340;BME280;46212;50.258;19.062;2023-01-30T12:34:56;97504.22;;;-0.63;88.68
53340;BME280;46212;50.258;19.062;2023-01-30T12:53:30;97508.84;;;-0.63;96.66
53340;BME280;46212;50.258;19.062;2023-01-30T13:09:45;97497.78;;;-0.45;98.02
53340;BME280;46212;50.258;19.062;2023-01-30T13:12:19;97502.00;;;-0.71;97.63
53340;BME280;46212;50.258;19.062;2023-01-30T13:14:47;97494.44;;;-0.57;97.94
53340;BME280;46212;50.258;19.062;2023-01-30T13:17:32;97500.19;;;-0.51;97.82
53340;BME280;46212;50.258;19.062;2023-01-30T13:23:07;97484.63;;;-0.47;97.47
53340;BME280;46212;50.258;19.062;2023-01-30T13:28:25;97487.16;;;-0.63;96.49
53340;BME280;46212;50.258;19.062;2023-01-30T13:30:52;97493.00;;;-0.38;96.65
53340;BME280;46212;50.258;19.062;2023-01-30T13:33:31;97466.00;;;-0.45;95.71
53340;BME280;46212;50.258;19.062;2023-01-30T13:36:23;97471.69;;;-0.13;95.83
53340;BME280;46212;50.258;19.062;2023-01-30T13:39:03;97478.94;;;-0.29;93.40
53340;BME280;46212;50.258;19.062;2023-01-30T13:41:36;97484.41;;;-0.33;93.80
53340;BME280;46212;50.258;19.062;2023-01-30T13:44:15;97458.06;;;-0.32;92.92
53340;BME280;46212;50.258;19.062;2023-01-30T13:46:42;97485.63;;;-0.11;91.80
53340;BME280;46212;50.258;19.062;2023-01-30T13:49:19;97456.00;;;-0.25;91.40
53340;BME280;46212;50.258;19.062;2023-01-30T13:51:51;97456.88;;;-0.08;89.95
53340;BME280;46212;50.258;19.062;2023-01-30T13:59:49;97463.16;;;0.32;87.70
53340;BME280;46212;50.258;19.062;2023-01-30T14:02:21;97452.38;;;1.07;84.84
53340;BME280;46212;50.258;19.062;2023-01-30T14:04:52;97463.22;;;0.91;85.00
53340;BME280;46212;50.258;19.062;2023-01-30T14:10:04;97461.13;;;0.79;84.28
53340;BME280;46212;50.258;19.062;2023-01-30T14:12:51;97448.59;;;0.85;84.20
53340;BME280;46212;50.258;19.062;2023-01-30T14:18:02;97454.84;;;1.01;83.21
53340;BME280;46212;50.258;19.062;2023-01-30T14:20:34;97455.31;;;0.96;81.85
53340;BME280;46212;50.258;19.062;2023-01-30T14:23:21;97451.22;;;0.88;82.46
53340;BME280;46212;50.258;19.062;2023-01-30T14:25:52;97460.34;;;0.59;83.40
53340;BME280;46212;50.258;19.062;2023-01-30T14:30:46;97473.53;;;0.60;83.83
53340;BME280;46212;50.258;19.062;2023-01-30T14:35:44;97463.91;;;0.56;83.76
53340;BME280;46212;50.258;19.062;2023-01-30T14:40:41;97459.44;;;0.45;84.19
53340;BME280;46212;50.258;19.062;2023-01-30T14:45:57;97464.41;;;0.50;85.39
53340;BME280;46212;50.258;19.062;2023-01-30T14:56:57;97473.03;;;0.65;84.76
53340;BME280;46212;50.258;19.062;2023-01-30T14:59:35;97454.91;;;0.59;84.65
53340;BME280;46212;50.258;19.062;2023-01-30T15:05:05;97473.56;;;0.76;84.94
53340;BME280;46212;50.258;19.062;2023-01-30T15:07:38;97471.09;;;0.66;85.83
53340;BME280;46212;50.258;19.062;2023-01-30T15:10:16;97476.59;;;0.82;86.04
53340;BME280;46212;50.258;19.062;2023-01-30T15:18:33;97489.69;;;0.87;84.33